Time;durP1;ratioP1;P1;durP2;ratioP2;P2;SDS_P1;SDS_P2;PMS_P1;PMS_P2;Temp;Humidity;BMP_temperature;BMP_pressure;BME280_temperature;BME280_humidity;BME280_pressure;Samples;Min_cycle;Max_cycle;Signal;HPM_P1;HPM_P2
2023/07/05 00:01:50;;;;;;;7.68;4.63;;;;;;;16.04;100.00;100365.28;4996299;28;20031;-53
2023/07/05 00:04:16;;;;;;;7.15;4.18;;;;;;;16.05;100.00;100358.94;4997310;28;20033;-53
2023/07/05 00:06:41;;;;;;;5.55;4.43;;;;;;;16.02;100.00;100348.56;4998577;28;20423;-54
2023/07/05 00:09:06;;;;;;;5.43;3.90;;;;;;;16.01;100.00;100336.16;5000087;28;20023;-55
2023/07/05 00:11:32;;;;;;;5.43;4.20;;;;;;;15.97;100.00;100334.81;4998747;28;20041;-56
2023/07/05 00:13:57;;;;;;;9.23;4.18;;;;;;;15.93;100.00;100333.47;5000874;28;20392;-55
2023/07/05 00:16:22;;;;;;;7.15;4.03;;;;;;;15.91;100.00;100320.25;4996584;28;20058;-53
2023/07/05 00:18:48;;;;;;;6.00;3.65;;;;;;;15.89;100.00;100300.81;5000880;28;20101;-53
2023/07/05 00:21:13;;;;;;;6.05;3.72;;;;;;;15.87;100.00;100291.25;4996474;28;20037;-54
2023/07/05 00:23:43;;;;;;;3.80;3.28;;;;;;;15.85;100.00;100274.53;5002708;28;20022;-53
2023/07/05 00:26:08;;;;;;;6.40;3.63;;;;;;;15.86;100.00;100279.72;4999025;28;20396;-52
2023/07/05 00:28:34;;;;;;;6.43;3.78;;;;;;;15.84;100.00;100273.72;4999487;28;20077;-56
2023/07/05 00:31:01;;;;;;;5.30;3.35;;;;;;;15.83;100.00;100265.84;5000007;28;20339;-56
2023/07/05 00:33:26;;;;;;;6.65;3.67;;;;;;;15.81;100.00;100257.13;4999600;28;20026;-55
2023/07/05 00:35:53;;;;;;;6.18;3.05;;;;;;;15.78;100.00;100236.03;4998897;28;21088;-55
2023/07/05 00:38:19;;;;;;;5.20;3.38;;;;;;;15.73;100.00;100212.41;4995591;28;20458;-56
2023/07/05 00:40:45;;;;;;;6.30;3.80;;;;;;;15.70;100.00;100207.38;4997482;28;20490;-55
2023/07/05 00:43:11;;;;;;;5.72;3.28;;;;;;;15.67;100.00;100224.63;5000112;28;20038;-56
2023/07/05 00:45:59;;;;;;;6.30;3.30;;;;;;;15.66;100.00;100239.00;4998892;28;20041;-56
2023/07/05 00:48:49;;;;;;;8.60;3.78;;;;;;;15.66;100.00;100254.25;4995238;28;20525;-56
2023/07/05 00:51:22;;;;;;;5.93;3.53;;;;;;;15.59;100.00;100235.34;4993851;28;20073;-54
2023/07/05 00:53:48;;;;;;;4.78;3.60;;;;;;;15.60;100.00;100228.13;4997704;28;20034;-55
2023/07/05 00:56:28;;;;;;;5.43;3.95;;;;;;;15.60;100.00;100223.59;5000731;28;20054;-54
2023/07/05 00:58:55;;;;;;;6.05;3.60;;;;;;;15.60;100.00;100215.56;4995146;28;20038;-53
2023/07/05 01:01:20;;;;;;;5.60;3.95;;;;;;;15.60;100.00;100212.91;5000759;28;20061;-53
2023/07/05 01:03:51;;;;;;;6.15;3.45;;;;;;;15.61;100.00;100217.25;4996450;28;20022;-56
2023/07/05 01:06:21;;;;;;;5.13;3.40;;;;;;;15.58;100.00;100209.56;4995751;28;20109;-57
2023/07/05 01:08:47;;;;;;;5.72;3.70;;;;;;;15.59;100.00;100202.34;5003482;28;20104;-56
2023/07/05 01:11:22;;;;;;;4.60;3.40;;;;;;;15.58;100.00;100198.03;5000539;28;20541;-55
2023/07/05 01:13:57;;;;;;;3.90;3.00;;;;;;;15.56;100.00;100198.19;5003288;28;20026;-54
2023/07/05 01:16:40;;;;;;;6.93;3.47;;;;;;;15.57;100.00;100199.88;5000047;28;20379;-54
2023/07/05 01:20:00;;;;;;;6.47;3.38;;;;;;;15.59;100.00;100202.34;4993674;28;20038;-55
2023/07/05 01:22:56;;;;;;;4.22;3.67;;;;;;;15.62;100.00;100207.38;4984292;28;20034;-55
2023/07/05 01:25:46;;;;;;;4.05;3.45;;;;;;;15.64;100.00;100210.75;5004198;28;20029;-54
2023/07/05 01:28:26;;;;;;;7.20;3.40;;;;;;;15.65;100.00;100218.59;5003911;28;20026;-55
2023/07/05 01:31:01;;;;;;;5.75;3.28;;;;;;;15.67;100.00;100205.91;4997957;28;20450;-55
2023/07/05 01:33:43;;;;;;;5.25;3.08;;;;;;;15.68;100.00;100210.22;4999732;28;20040;-53
2023/07/05 01:36:10;;;;;;;5.00;3.40;;;;;;;15.66;100.00;100208.75;5000397;28;20069;-54
2023/07/05 01:38:36;;;;;;;5.32;2.95;;;;;;;15.66;100.00;100212.25;5002384;28;20397;-54
2023/07/05 01:41:05;;;;;;;5.80;3.05;;;;;;;15.70;100.00;100215.41;5001882;28;20032;-55
2023/07/05 01:43:34;;;;;;;3.88;3.20;;;;;;;15.68;100.00;100215.59;5000635;28;20038;-55
2023/07/05 01:46:19;;;;;;;6.05;2.85;;;;;;;15.69;100.00;100216.44;5002693;28;20104;-53
2023/07/05 01:49:05;;;;;;;4.70;2.63;;;;;;;15.71;100.00;100217.09;4999279;28;20056;-54
2023/07/05 01:51:51;;;;;;;3.20;2.90;;;;;;;15.72;100.00;100234.81;4987232;28;20042;-56
2023/07/05 01:54:31;;;;;;;3.83;2.65;;;;;;;15.69;100.00;100227.97;5003074;28;20026;-54
2023/07/05 01:57:08;;;;;;;3.05;2.45;;;;;;;15.67;100.00;100238.03;5001315;28;20035;-55
2023/07/05 01:59:55;;;;;;;3.17;2.50;;;;;;;15.69;100.00;100251.25;5000104;28;20018;-54
2023/07/05 02:02:26;;;;;;;3.22;2.92;;;;;;;15.62;100.00;100256.41;5000721;28;20048;-53
2023/07/05 02:04:52;;;;;;;6.10;2.80;;;;;;;15.57;100.00;100273.97;5004066;28;20038;-53
2023/07/05 02:07:24;;;;;;;3.15;2.33;;;;;;;15.56;100.00;100277.66;5003600;28;20021;-54
2023/07/05 02:09:49;;;;;;;3.58;2.22;;;;;;;15.50;100.00;100277.31;4993279;28;20044;-53
2023/07/05 02:12:14;;;;;;;2.70;2.47;;;;;;;15.40;100.00;100298.00;5006924;28;20101;-52
2023/07/05 02:14:40;;;;;;;4.15;2.40;;;;;;;15.26;100.00;100307.50;5002130;28;20026;-55
2023/07/05 02:17:05;;;;;;;2.78;2.20;;;;;;;15.14;100.00;100316.81;5002094;28;20104;-55
2023/07/05 02:19:30;;;;;;;2.47;1.98;;;;;;;15.03;100.00;100317.09;5000288;28;20092;-54
2023/07/05 02:21:56;;;;;;;4.68;2.38;;;;;;;14.90;100.00;100323.69;5002080;28;20025;-55
2023/07/05 02:24:21;;;;;;;3.08;2.45;;;;;;;14.77;100.00;100318.78;5003320;28;20546;-55
2023/07/05 02:26:46;;;;;;;3.38;2.95;;;;;;;14.64;99.70;100322.88;5003922;28;20522;-53
2023/07/05 02:29:12;;;;;;;4.00;2.80;;;;;;;14.57;99.66;100323.47;5000554;28;20423;-53
2023/07/05 02:31:37;;;;;;;7.63;2.75;;;;;;;14.52;100.00;100336.47;4999643;28;20030;-54
2023/07/05 02:34:02;;;;;;;3.28;2.70;;;;;;;14.48;100.00;100334.25;5003729;28;20049;-55
2023/07/05 02:36:28;;;;;;;3.08;2.70;;;;;;;14.39;100.00;100350.22;4988813;28;20037;-55
2023/07/05 02:38:54;;;;;;;3.33;2.35;;;;;;;14.37;100.00;100346.00;5001919;28;20034;-53
2023/07/05 02:41:20;;;;;;;4.72;2.80;;;;;;;14.34;100.00;100346.31;5003692;28;20541;-54
2023/07/05 02:43:45;;;;;;;3.67;2.90;;;;;;;14.27;100.00;100348.75;5000778;28;20391;-55
2023/07/05 02:46:10;;;;;;;4.88;2.92;;;;;;;14.21;100.00;100344.88;4999141;28;20021;-52
2023/07/05 02:48:36;;;;;;;3.85;3.05;;;;;;;14.17;100.00;100348.00;5004246;28;20079;-52
2023/07/05 02:51:01;;;;;;;6.82;2.78;;;;;;;14.14;100.00;100335.81;5000266;28;20466;-55
2023/07/05 02:53:26;;;;;;;4.00;2.90;;;;;;;14.12;99.48;100336.94;5000432;28;20421;-55
2023/07/05 02:55:52;;;;;;;4.28;2.78;;;;;;;14.06;99.31;100346.44;5004247;28;20064;-53
2023/07/05 02:58:17;;;;;;;3.92;3.03;;;;;;;14.02;100.00;100342.38;5004551;28;20026;-52
2023/07/05 03:00:44;;;;;;;6.28;3.20;;;;;;;13.97;100.00;100339.31;4997437;28;20166;-52
2023/07/05 03:03:10;;;;;;;5.63;3.03;;;;;;;13.94;100.00;100348.50;5003237;28;20038;-52
2023/07/05 03:05:35;;;;;;;5.28;3.70;;;;;;;13.88;100.00;100346.41;4999705;28;20030;-54
2023/07/05 03:08:00;;;;;;;5.88;3.38;;;;;;;13.84;98.79;100350.38;5004263;28;20034;-55
2023/07/05 03:10:26;;;;;;;6.82;3.33;;;;;;;13.79;100.00;100345.50;4997499;28;20427;-52
2023/07/05 03:12:51;;;;;;;6.38;4.00;;;;;;;13.75;100.00;100345.94;5002475;28;20026;-54
2023/07/05 03:15:16;;;;;;;4.32;3.40;;;;;;;13.72;99.84;100348.91;5000064;28;20034;-54
2023/07/05 03:17:43;;;;;;;5.13;3.70;;;;;;;13.65;99.25;100352.16;4999093;28;20022;-54
2023/07/05 03:20:08;;;;;;;7.70;3.45;;;;;;;13.60;99.24;100340.28;5000022;28;20448;-54
2023/07/05 03:22:34;;;;;;;4.68;3.50;;;;;;;13.58;99.81;100344.94;4996657;28;20113;-55
2023/07/05 03:24:59;;;;;;;6.43;3.45;;;;;;;13.54;99.02;100339.06;4999106;28;20109;-52
2023/07/05 03:27:30;;;;;;;5.88;3.70;;;;;;;13.51;99.49;100342.00;5001737;28;20113;-55
2023/07/05 03:29:56;;;;;;;5.63;4.15;;;;;;;13.52;99.40;100335.66;5000064;28;20052;-55
2023/07/05 03:32:22;;;;;;;5.70;4.13;;;;;;;13.50;99.19;100340.31;4998703;28;20485;-55
2023/07/05 03:34:47;;;;;;;8.02;4.35;;;;;;;13.47;100.00;100340.63;5002806;28;20048;-55
2023/07/05 03:37:12;;;;;;;8.90;3.88;;;;;;;13.50;99.58;100351.81;5000879;28;20480;-52
2023/07/05 03:39:38;;;;;;;5.63;4.13;;;;;;;13.51;99.28;100345.50;4984085;28;20037;-53
2023/07/05 03:42:04;;;;;;;7.50;4.15;;;;;;;13.52;99.76;100349.00;5000151;28;20101;-52
2023/07/05 03:44:29;;;;;;;6.63;4.28;;;;;;;13.54;100.00;100340.88;4995552;28;20034;-53
2023/07/05 03:46:54;;;;;;;6.43;3.92;;;;;;;13.54;98.47;100355.06;5000080;28;20037;-52
2023/07/05 03:49:19;;;;;;;6.75;4.43;;;;;;;13.53;99.22;100353.38;4996516;28;20107;-53
2023/07/05 03:51:45;;;;;;;4.97;3.90;;;;;;;13.49;99.43;100344.00;5002095;28;20026;-53
2023/07/05 03:54:10;;;;;;;9.85;4.18;;;;;;;13.50;99.30;100354.50;4999056;28;20031;-55
2023/07/05 03:56:36;;;;;;;5.90;4.47;;;;;;;13.52;99.76;100359.69;5003554;28;20480;-52
2023/07/05 03:59:02;;;;;;;8.43;4.70;;;;;;;13.51;98.46;100334.00;4999657;28;20031;-52
2023/07/05 04:01:28;;;;;;;6.10;4.15;;;;;;;13.52;99.42;100330.34;5003779;28;20034;-52
2023/07/05 04:03:57;;;;;;;6.15;4.07;;;;;;;13.50;98.99;100338.50;4999454;28;20026;-55
2023/07/05 04:06:25;;;;;;;10.20;4.57;;;;;;;13.50;98.92;100333.16;4997800;28;20026;-53
2023/07/05 04:08:50;;;;;;;5.45;4.07;;;;;;;13.51;98.30;100336.69;5001365;28;20176;-55
2023/07/05 04:11:16;;;;;;;8.70;4.35;;;;;;;13.49;99.27;100344.00;4998593;28;20519;-55
2023/07/05 04:13:41;;;;;;;5.50;4.00;;;;;;;13.49;98.93;100336.81;4997509;28;20053;-55
2023/07/05 04:16:10;;;;;;;7.53;4.35;;;;;;;13.51;99.80;100350.84;5000745;28;20542;-54
2023/07/05 04:18:37;;;;;;;6.70;4.07;;;;;;;13.50;99.41;100343.81;5000185;28;20034;-55
2023/07/05 04:21:03;;;;;;;6.97;4.78;;;;;;;13.51;99.37;100340.19;5000724;28;20034;-53
2023/07/05 04:23:29;;;;;;;7.38;4.78;;;;;;;13.55;99.52;100342.56;4999739;28;20038;-54
2023/07/05 04:26:02;;;;;;;9.77;4.30;;;;;;;13.55;99.51;100348.72;4997965;28;20427;-56
2023/07/05 04:28:28;;;;;;;7.57;4.32;;;;;;;13.55;99.02;100348.72;4999006;28;20026;-55
2023/07/05 04:30:54;;;;;;;8.57;4.72;;;;;;;13.55;98.95;100346.06;4996252;28;20030;-55
2023/07/05 04:33:19;;;;;;;7.05;4.60;;;;;;;13.58;97.23;100351.09;4998184;28;20547;-52
2023/07/05 04:35:46;;;;;;;8.50;5.00;;;;;;;13.58;97.33;100347.59;4996411;28;20031;-53
2023/07/05 04:38:12;;;;;;;8.15;4.53;;;;;;;13.57;97.27;100349.41;4995895;28;20037;-53
2023/07/05 04:40:37;;;;;;;5.65;4.75;;;;;;;13.58;96.57;100352.94;5000743;28;20034;-54
2023/07/05 04:43:03;;;;;;;6.07;4.18;;;;;;;13.57;96.49;100346.72;5005642;28;20021;-53
2023/07/05 04:45:28;;;;;;;8.23;4.65;;;;;;;13.57;97.73;100345.91;5002886;28;20038;-52
2023/07/05 04:47:53;;;;;;;9.55;4.13;;;;;;;13.57;95.50;100341.41;5004031;28;20482;-52
2023/07/05 04:50:19;;;;;;;10.73;4.28;;;;;;;13.58;96.65;100345.75;4996678;28;20042;-54
2023/07/05 04:52:44;;;;;;;6.47;4.30;;;;;;;13.58;95.09;100350.25;5000593;28;20030;-55
2023/07/05 04:55:09;;;;;;;8.75;4.55;;;;;;;13.60;96.89;100358.94;4998681;28;20096;-53
2023/07/05 04:57:34;;;;;;;6.78;4.40;;;;;;;13.59;95.01;100347.44;4997675;28;20068;-56
2023/07/05 05:00:05;;;;;;;7.40;4.78;;;;;;;13.60;94.78;100350.94;4994711;28;20026;-52
2023/07/05 05:02:31;;;;;;;10.20;4.68;;;;;;;13.61;94.17;100347.31;4996580;28;20561;-53
2023/07/05 05:04:56;;;;;;;8.70;4.20;;;;;;;13.59;93.53;100358.13;5015722;28;20030;-54
2023/07/05 05:07:22;;;;;;;7.15;4.28;;;;;;;13.63;94.96;100362.16;5001800;28;20117;-54
2023/07/05 05:09:47;;;;;;;8.68;4.60;;;;;;;13.67;95.27;100368.03;5003533;28;20030;-52
2023/07/05 05:12:12;;;;;;;7.60;4.43;;;;;;;13.68;93.14;100365.22;4997157;28;20480;-52
2023/07/05 05:14:37;;;;;;;6.97;4.38;;;;;;;13.68;92.88;100357.22;5003816;28;20117;-53
2023/07/05 05:17:03;;;;;;;5.90;4.13;;;;;;;13.67;94.08;100366.22;5003690;28;20022;-51
2023/07/05 05:19:28;;;;;;;9.38;4.47;;;;;;;13.66;92.27;100371.72;4995977;28;20484;-54
2023/07/05 05:21:54;;;;;;;7.65;3.78;;;;;;;13.66;91.86;100367.19;4995195;28;20113;-54
2023/07/05 05:24:19;;;;;;;7.35;4.05;;;;;;;13.67;92.43;100366.22;4987430;28;20030;-53
2023/07/05 05:26:46;;;;;;;7.78;4.53;;;;;;;13.65;92.86;100368.19;5005002;28;20026;-55
2023/07/05 05:29:11;;;;;;;6.63;3.90;;;;;;;13.68;91.70;100369.72;5003347;28;20038;-53
2023/07/05 05:31:37;;;;;;;7.32;3.65;;;;;;;13.71;92.43;100365.94;5004505;28;20463;-54
2023/07/05 05:34:03;;;;;;;5.15;3.88;;;;;;;13.67;91.04;100366.22;4998566;28;20042;-52
2023/07/05 05:36:28;;;;;;;10.10;4.20;;;;;;;13.68;91.58;100380.41;5004688;28;20038;-55
2023/07/05 05:38:53;;;;;;;9.77;4.00;;;;;;;13.66;90.98;100372.53;5002385;28;20030;-53
2023/07/05 05:41:19;;;;;;;5.85;3.95;;;;;;;13.68;90.97;100380.41;5002379;28;20028;-54
2023/07/05 05:43:45;;;;;;;7.03;4.10;;;;;;;13.65;90.28;100372.69;5000394;28;20121;-52
2023/07/05 05:46:10;;;;;;;6.53;3.80;;;;;;;13.64;90.81;100377.19;5003410;28;20498;-54
2023/07/05 05:48:36;;;;;;;13.40;4.00;;;;;;;13.63;92.34;100382.69;5003234;28;20030;-54
2023/07/05 05:51:01;;;;;;;5.53;3.95;;;;;;;13.64;91.30;100387.88;4995649;28;20062;-54
2023/07/05 05:53:27;;;;;;;5.82;3.85;;;;;;;13.59;91.01;100382.13;5001654;28;20126;-52
2023/07/05 05:55:56;;;;;;;9.80;3.95;;;;;;;13.59;90.92;100378.59;4995773;28;20549;-53
2023/07/05 05:58:21;;;;;;;6.20;3.65;;;;;;;13.60;92.25;100374.97;4999152;28;20021;-52
2023/07/05 06:00:46;;;;;;;8.38;4.00;;;;;;;13.62;91.61;100395.19;5001311;28;20534;-54
2023/07/05 06:03:12;;;;;;;5.40;3.70;;;;;;;13.64;90.61;100411.06;4996987;28;20018;-53
2023/07/05 06:05:37;;;;;;;5.65;3.65;;;;;;;13.64;93.02;100408.38;4996605;28;20041;-55
2023/07/05 06:08:03;;;;;;;8.25;3.83;;;;;;;13.60;92.16;100413.16;4991860;28;20026;-51
2023/07/05 06:10:28;;;;;;;5.53;3.60;;;;;;;13.60;93.29;100406.97;4989133;28;20480;-54
2023/07/05 06:12:54;;;;;;;6.30;3.67;;;;;;;13.60;91.42;100426.50;4999441;28;20034;-52
2023/07/05 06:15:19;;;;;;;7.20;3.30;;;;;;;13.62;92.34;100434.34;4998304;28;20038;-50
2023/07/05 06:17:44;;;;;;;5.10;3.17;;;;;;;13.61;92.76;100430.03;4996038;28;20029;-52
2023/07/05 06:20:10;;;;;;;8.55;3.63;;;;;;;13.59;91.75;100446.19;4993864;28;20043;-50
2023/07/05 06:22:37;;;;;;;8.43;3.40;;;;;;;13.58;93.10;100440.97;4998711;28;20542;-52
2023/07/05 06:25:03;;;;;;;5.32;2.90;;;;;;;13.60;92.34;100447.00;4996772;28;20698;-54
2023/07/05 06:27:29;;;;;;;7.70;3.22;;;;;;;13.65;92.63;100444.72;4997849;28;20022;-51
2023/07/05 06:29:55;;;;;;;6.75;3.10;;;;;;;13.68;91.12;100444.44;4999487;28;20065;-51
2023/07/05 06:32:21;;;;;;;7.05;2.78;;;;;;;13.70;90.68;100442.47;4997377;28;20026;-51
2023/07/05 06:34:46;;;;;;;5.03;3.10;;;;;;;13.81;93.00;100430.75;4998136;28;20134;-53
2023/07/05 06:37:12;;;;;;;3.55;2.92;;;;;;;13.97;88.47;100448.78;5000387;28;20026;-53
2023/07/05 06:39:37;;;;;;;4.40;2.53;;;;;;;14.08;88.30;100456.59;4998285;28;20053;-52
2023/07/05 06:42:03;;;;;;;6.95;2.95;;;;;;;14.14;88.44;100453.34;4997529;28;20026;-54
2023/07/05 06:44:29;;;;;;;6.85;3.00;;;;;;;14.18;86.22;100454.69;5000279;28;20048;-50
2023/07/05 06:46:54;;;;;;;4.88;2.55;;;;;;;14.22;85.61;100461.44;4992658;28;20033;-51
2023/07/05 06:49:19;;;;;;;6.53;2.55;;;;;;;14.29;85.18;100466.16;4987415;28;20042;-53
2023/07/05 06:51:45;;;;;;;10.50;3.00;;;;;;;14.33;85.55;100478.22;4999820;28;20030;-51
2023/07/05 06:54:10;;;;;;;6.30;2.53;;;;;;;14.33;84.98;100476.41;4999893;28;20468;-51
2023/07/05 06:56:36;;;;;;;4.38;2.80;;;;;;;14.36;85.15;100481.44;4997778;28;20085;-52
2023/07/05 06:59:01;;;;;;;9.68;2.70;;;;;;;14.42;84.09;100482.66;4993939;28;20038;-54
2023/07/05 07:01:27;;;;;;;5.63;2.80;;;;;;;14.44;83.33;100497.56;4999496;28;20030;-51
2023/07/05 07:03:52;;;;;;;5.32;2.30;;;;;;;14.55;83.01;100490.31;4994771;28;20046;-54
2023/07/05 07:06:18;;;;;;;6.00;2.75;;;;;;;14.71;82.08;100492.34;4998450;28;20388;-52
2023/07/05 07:08:43;;;;;;;4.97;2.45;;;;;;;14.82;82.70;100508.13;4996001;28;20027;-53
2023/07/05 07:11:11;;;;;;;6.35;2.20;;;;;;;14.77;78.63;100527.31;4997786;28;20033;-51
2023/07/05 07:13:36;;;;;;;3.05;1.98;;;;;;;14.79;81.74;100516.47;4998781;28;20550;-51
2023/07/05 07:16:08;;;;;;;7.15;2.17;;;;;;;14.77;79.53;100516.63;5001848;28;20034;-54
2023/07/05 07:18:36;;;;;;;7.45;1.95;;;;;;;14.77;80.08;100523.78;4994245;28;20034;-54
2023/07/05 07:21:02;;;;;;;3.58;1.95;;;;;;;14.80;81.76;100520.81;5002966;28;20025;-50
2023/07/05 07:23:28;;;;;;;5.10;2.45;;;;;;;14.84;83.06;100535.56;4995285;28;20026;-53
2023/07/05 07:26:16;;;;;;;6.22;2.90;;;;;;;14.91;85.97;100538.47;4997668;28;20040;-52
2023/07/05 07:28:46;;;;;;;6.27;2.70;;;;;;;14.82;85.51;100534.84;5000228;28;20064;-51
2023/07/05 07:31:14;;;;;;;5.25;2.60;;;;;;;14.65;87.01;100535.72;4997673;28;20034;-53
2023/07/05 07:33:40;;;;;;;4.93;2.50;;;;;;;14.64;87.18;100555.41;4998856;28;20466;-52
2023/07/05 07:36:13;;;;;;;3.65;2.60;;;;;;;14.52;88.23;100558.28;5002426;28;20030;-52
2023/07/05 07:38:40;;;;;;;5.40;2.58;;;;;;;14.40;86.73;100565.63;4997457;28;20038;-53
2023/07/05 07:41:15;;;;;;;5.07;2.55;;;;;;;14.33;89.62;100569.06;4993003;28;20539;-51
2023/07/05 07:43:41;;;;;;;5.00;2.25;;;;;;;14.24;90.59;100571.63;4999236;28;20480;-54
2023/07/05 07:46:14;;;;;;;5.43;3.03;;;;;;;14.19;91.96;100573.09;4987962;28;20034;-52
2023/07/05 07:48:42;;;;;;;6.70;2.50;;;;;;;14.08;91.80;100584.78;4998450;28;20026;-51
2023/07/05 07:51:09;;;;;;;5.05;2.97;;;;;;;14.02;92.25;100582.69;5001730;28;20494;-51
2023/07/05 07:53:35;;;;;;;4.20;2.42;;;;;;;13.98;92.31;100600.00;5009898;28;20030;-53
2023/07/05 07:56:08;;;;;;;5.28;2.65;;;;;;;13.97;93.18;100598.31;4998831;28;20051;-54
2023/07/05 07:58:33;;;;;;;5.00;2.78;;;;;;;13.94;95.48;100601.25;4994488;28;20149;-53
2023/07/05 08:01:09;;;;;;;5.40;3.30;;;;;;;13.93;94.55;100607.63;4996894;28;20121;-53
2023/07/05 08:03:35;;;;;;;4.57;2.63;;;;;;;13.85;94.87;100585.13;4993684;28;20033;-54
2023/07/05 08:06:00;;;;;;;6.25;2.65;;;;;;;13.80;95.74;100590.06;4994221;28;20080;-54
2023/07/05 08:08:25;;;;;;;8.60;2.83;;;;;;;13.84;94.57;100599.47;4999389;28;20065;-54
2023/07/05 08:10:50;;;;;;;4.80;2.72;;;;;;;13.80;95.80;100594.56;4997535;28;20403;-52
2023/07/05 08:13:16;;;;;;;3.92;2.72;;;;;;;13.79;94.38;100617.75;4999855;28;20076;-53
2023/07/05 08:15:41;;;;;;;7.15;2.53;;;;;;;13.87;97.47;100609.00;5001198;28;20103;-52
2023/07/05 08:18:06;;;;;;;6.53;2.65;;;;;;;14.04;93.14;100608.28;4989900;28;20026;-51
2023/07/05 08:20:33;;;;;;;4.90;3.00;;;;;;;14.23;95.07;100607.34;5000255;28;20045;-52
2023/07/05 08:22:58;;;;;;;4.55;2.75;;;;;;;14.54;93.42;100628.44;4991050;28;20030;-54
2023/07/05 08:25:24;;;;;;;5.68;3.33;;;;;;;14.86;92.89;100612.97;4994195;28;20073;-54
2023/07/05 08:27:49;;;;;;;7.53;3.92;;;;;;;15.04;90.15;100632.53;4998910;28;20060;-53
2023/07/05 08:30:14;;;;;;;10.50;2.95;;;;;;;15.28;92.57;100620.38;4958141;28;22087;-52
2023/07/05 08:32:40;;;;;;;7.95;2.90;;;;;;;15.47;89.18;100620.22;4997049;28;20026;-51
2023/07/05 08:35:06;;;;;;;9.80;3.90;;;;;;;15.86;90.14;100632.41;4997808;28;20516;-51
2023/07/05 08:37:31;;;;;;;7.68;2.90;;;;;;;16.23;88.33;100642.00;4997648;28;20029;-54
2023/07/05 08:39:56;;;;;;;8.15;3.10;;;;;;;16.44;85.25;100645.13;4994488;28;20097;-51
2023/07/05 08:42:37;;;;;;;5.03;2.80;;;;;;;16.45;82.29;100670.94;4994598;28;20479;-51
2023/07/05 08:45:14;;;;;;;8.23;3.00;;;;;;;16.45;82.20;100654.84;4990143;28;20027;-54
2023/07/05 08:47:51;;;;;;;7.88;3.05;;;;;;;16.59;81.24;100669.47;5000543;28;20037;-53
2023/07/05 08:50:31;;;;;;;7.40;2.80;;;;;;;16.89;81.72;100671.81;4989462;28;20030;-52
2023/07/05 08:53:05;;;;;;;9.50;2.63;;;;;;;17.04;77.10;100683.56;4997836;28;20040;-51
2023/07/05 08:55:54;;;;;;;6.47;2.70;;;;;;;17.30;79.43;100672.72;4992807;28;20026;-52
2023/07/05 08:58:25;;;;;;;8.57;3.17;;;;;;;17.75;78.91;100676.78;4984347;28;20042;-54
2023/07/05 09:01:05;;;;;;;7.88;3.25;;;;;;;18.01;74.96;100667.69;4995835;28;20030;-52
2023/07/05 09:03:31;;;;;;;9.70;2.80;;;;;;;18.33;74.02;100694.69;4993759;28;20042;-52
2023/07/05 09:06:05;;;;;;;6.97;2.60;;;;;;;18.51;72.18;100686.41;4996671;28;20030;-52
2023/07/05 09:08:43;;;;;;;4.93;2.60;;;;;;;18.59;71.12;100700.66;4994156;28;20057;-52
2023/07/05 09:11:22;;;;;;;7.15;2.90;;;;;;;18.59;68.48;100707.88;4991724;28;20033;-54
2023/07/05 09:13:47;;;;;;;6.20;2.67;;;;;;;18.73;69.39;100700.94;4996453;28;20153;-54
2023/07/05 09:16:23;;;;;;;6.00;2.90;;;;;;;18.66;68.88;100723.16;4990176;28;20117;-53
2023/07/05 09:19:10;;;;;;;6.05;3.30;;;;;;;18.68;68.71;100710.38;4996541;28;20468;-55
2023/07/05 09:21:41;;;;;;;8.60;2.75;;;;;;;18.58;66.06;100722.34;4991878;28;20034;-51
2023/07/05 09:24:06;;;;;;;9.27;2.92;;;;;;;18.59;67.40;100722.16;4996252;28;20037;-54
2023/07/05 09:26:47;;;;;;;7.78;3.00;;;;;;;19.00;67.97;100737.34;4993144;28;20030;-52
2023/07/05 09:29:21;;;;;;;7.35;2.47;;;;;;;19.30;67.62;100724.91;4999464;28;20683;-53
2023/07/05 09:31:48;;;;;;;8.98;2.75;;;;;;;19.46;61.59;100732.03;4988792;28;20053;-53
2023/07/05 09:34:27;;;;;;;8.27;2.30;;;;;;;19.62;63.01;100741.00;4990319;28;20507;-53
2023/07/05 09:36:53;;;;;;;5.50;2.50;;;;;;;19.91;61.47;100743.00;4995806;28;20022;-52
2023/07/05 09:39:47;;;;;;;10.25;2.53;;;;;;;20.11;61.06;100759.53;4992813;28;20022;-54
2023/07/05 09:42:23;;;;;;;8.07;2.13;;;;;;;20.28;57.46;100754.81;4999637;28;20503;-52
2023/07/05 09:44:48;;;;;;;9.73;2.30;;;;;;;20.33;57.10;100761.34;4982593;28;20129;-53
2023/07/05 09:47:13;;;;;;;9.07;2.20;;;;;;;20.32;58.26;100751.56;5017766;28;20113;-54
2023/07/05 09:49:39;;;;;;;5.03;2.10;;;;;;;20.47;58.33;100791.22;4995657;28;20105;-53
2023/07/05 09:52:10;;;;;;;6.65;2.05;;;;;;;20.51;56.73;100796.03;5001823;28;20545;-53
2023/07/05 09:54:37;;;;;;;7.80;2.25;;;;;;;20.49;54.04;100790.00;4987053;28;20025;-54
2023/07/05 09:57:06;;;;;;;7.25;2.03;;;;;;;20.61;53.81;100770.66;4988363;28;20037;-55
2023/07/05 09:59:33;;;;;;;8.00;1.92;;;;;;;20.67;52.50;100783.44;5003109;28;20029;-52
2023/07/05 10:02:04;;;;;;;8.70;1.88;;;;;;;20.55;54.95;100788.44;4999588;28;20483;-55
2023/07/05 10:04:29;;;;;;;6.75;1.60;;;;;;;20.62;54.88;100805.56;4978693;28;20128;-52
2023/07/05 10:06:55;;;;;;;5.03;1.95;;;;;;;20.78;53.28;100814.53;4993699;28;20125;-54
2023/07/05 10:09:24;;;;;;;5.95;1.90;;;;;;;20.74;52.35;100797.88;4998071;28;20026;-54
2023/07/05 10:11:53;;;;;;;7.35;1.70;;;;;;;20.93;53.21;100804.56;4993671;28;20046;-54
2023/07/05 10:14:27;;;;;;;9.85;1.85;;;;;;;21.12;51.25;100799.63;4997391;28;20484;-54
2023/07/05 10:17:02;;;;;;;10.98;2.00;;;;;;;21.08;49.72;100804.56;4996811;28;20117;-55
2023/07/05 10:19:28;;;;;;;5.03;1.73;;;;;;;21.32;52.85;100819.63;4998401;28;20124;-52
2023/07/05 10:21:58;;;;;;;5.53;1.73;;;;;;;21.52;51.25;100828.00;4998740;28;20124;-52
2023/07/05 10:24:26;;;;;;;6.22;1.77;;;;;;;21.55;48.50;100826.75;5000319;28;20030;-52
2023/07/05 10:27:00;;;;;;;4.57;1.67;;;;;;;21.57;47.48;100825.56;4997960;28;20514;-51
2023/07/05 10:29:26;;;;;;;5.32;1.40;;;;;;;21.73;47.87;100842.56;5001548;28;20038;-55
2023/07/05 10:31:54;;;;;;;6.05;1.83;;;;;;;21.74;49.18;100838.84;4999032;28;20074;-54
2023/07/05 10:34:23;;;;;;;4.82;1.55;;;;;;;21.71;46.89;100852.75;4998990;28;20046;-52
2023/07/05 10:36:48;;;;;;;;;;;;;;;22.02;51.92;100844.34;4998859;28;20041;-54
2023/07/05 10:39:22;;;;;;;8.63;1.70;;;;;;;21.78;47.89;100854.50;4988508;28;19918;-54
2023/07/05 10:41:50;;;;;;;4.75;1.85;;;;;;;21.75;48.70;100851.31;4990954;28;20038;-55
2023/07/05 10:44:26;;;;;;;5.03;1.50;;;;;;;21.99;49.08;100859.06;4995506;28;20022;-54
2023/07/05 10:46:54;;;;;;;8.65;1.55;;;;;;;22.05;43.82;100860.19;4995873;28;20360;-54
2023/07/05 10:49:19;;;;;;;7.18;1.70;;;;;;;21.95;45.19;100878.59;5001046;28;20037;-55
2023/07/05 10:51:55;;;;;;;3.47;1.50;;;;;;;21.77;45.28;100865.50;4999249;28;20419;-53
2023/07/05 10:54:36;;;;;;;4.22;1.38;;;;;;;21.75;45.87;100879.22;5002120;28;20058;-55
2023/07/05 10:57:10;;;;;;;8.52;2.20;;;;;;;21.74;44.06;100874.00;4997710;28;20041;-52
2023/07/05 10:59:40;;;;;;;5.15;1.40;;;;;;;21.87;43.43;100905.75;4994548;28;20023;-54
2023/07/05 11:02:11;;;;;;;8.25;1.67;;;;;;;22.14;46.66;100886.06;4996691;28;20073;-55
2023/07/05 11:04:40;;;;;;;8.38;1.65;;;;;;;22.22;44.69;100878.88;4999621;28;20035;-53
2023/07/05 11:07:10;;;;;;;6.50;1.60;;;;;;;22.33;45.56;100875.66;5000257;28;20038;-52
2023/07/05 11:09:37;;;;;;;7.53;1.73;;;;;;;22.36;44.16;100880.69;4998882;28;20331;-54
2023/07/05 11:12:11;;;;;;;6.35;1.52;;;;;;;22.39;42.57;100887.59;4993506;28;20054;-55
2023/07/05 11:14:36;;;;;;;4.38;1.70;;;;;;;22.58;44.37;100899.59;4995253;28;20109;-54
2023/07/05 11:17:05;;;;;;;5.68;1.50;;;;;;;22.54;42.61;100885.63;4995533;28;20571;-54
2023/07/05 11:19:30;;;;;;;9.83;2.00;;;;;;;22.64;44.44;100898.84;4991524;28;20085;-52
2023/07/05 11:21:58;;;;;;;4.32;1.45;;;;;;;22.80;43.86;100898.53;4994718;28;20300;-54
2023/07/05 11:24:38;;;;;;;5.57;1.65;;;;;;;22.77;43.48;100917.06;4996702;28;20554;-55
2023/07/05 11:27:40;;;;;;;5.45;1.42;;;;;;;22.91;42.63;100906.13;5001485;28;20110;-55
2023/07/05 11:30:39;;;;;;;3.30;1.70;;;;;;;23.13;43.80;100910.66;4999971;28;20610;-55
2023/07/05 11:33:04;;;;;;;4.47;1.40;;;;;;;23.24;42.19;100907.41;4999909;28;20034;-53